Swastika, Canada
Current Conditions -  °F | °C
As of 8:00 AM on Friday 31 Oct 2014 (Local Time) from CYXR Reporting Station
Light Snow Light Snow  
Wind Chill: -7°   Ceiling: 2400
Heat Index: -2°   Visibility: 2mi
Dew Point: -3°   Wind: 10mph
Humidity: 93%   Direction: 350°N
Pressure: 30.13"   Gusts: NA
Location:  48.1°N, 80.1°W
Report Text: CYXR 311200Z AUTO 35009KT 2SM -SN OVC024 M02/M03 A3013 RMK ICG INTMT SLP216
Loading
Personal Weather Stations






























Interactive Weather Map
Tropical Storm Tracking
New forecast layout! Learn more

10-Day Weather Forecast

Advertisements
Track Severe Weather on mobile